createdAt,value
2018-08-17T00:02:15.191Z,75.20
2018-08-17T00:04:43.688Z,75.20
2018-08-17T00:07:12.184Z,74.80
2018-08-17T00:09:40.866Z,74.80
2018-08-17T00:12:09.379Z,74.60
2018-08-17T00:14:37.847Z,74.80
2018-08-17T00:17:06.547Z,74.90
2018-08-17T00:19:34.940Z,74.90
2018-08-17T00:22:03.516Z,75.00
2018-08-17T00:24:32.070Z,74.90
2018-08-17T00:27:00.541Z,75.20
2018-08-17T00:29:29.049Z,75.10
2018-08-17T00:31:57.531Z,75.10
2018-08-17T00:34:26.003Z,75.00
2018-08-17T00:36:54.433Z,74.80
2018-08-17T00:39:22.893Z,74.90
2018-08-17T00:41:51.339Z,74.80
2018-08-17T00:44:20.100Z,75.00
2018-08-17T00:46:48.653Z,75.00
2018-08-17T00:49:17.072Z,75.20
2018-08-17T00:51:45.561Z,75.30
2018-08-17T00:54:13.987Z,75.50
2018-08-17T00:56:42.473Z,75.50
2018-08-17T00:59:10.913Z,75.60
2018-08-17T01:01:39.399Z,75.80
2018-08-17T01:04:07.840Z,75.90
2018-08-17T01:06:36.308Z,76.00
2018-08-17T01:09:06.755Z,76.20
2018-08-17T01:11:35.203Z,76.30
2018-08-17T01:14:03.879Z,76.70
2018-08-17T01:16:32.353Z,76.60
2018-08-17T01:19:00.789Z,77.00
2018-08-17T01:21:29.249Z,76.40
2018-08-17T01:23:57.735Z,76.90
2018-08-17T01:26:26.275Z,77.00
2018-08-17T01:28:54.750Z,76.70
2018-08-17T01:31:23.191Z,76.40
2018-08-17T01:33:51.636Z,76.30
2018-08-17T01:36:20.080Z,76.20
2018-08-17T01:38:48.549Z,76.50
2018-08-17T01:41:16.975Z,76.20
2018-08-17T01:43:45.396Z,76.20
2018-08-17T01:46:13.948Z,76.50
2018-08-17T01:48:42.427Z,76.80
2018-08-17T01:51:10.888Z,76.50
2018-08-17T01:53:39.278Z,77.10
2018-08-17T01:56:07.832Z,77.10
2018-08-17T01:58:36.247Z,76.70
2018-08-17T02:01:04.880Z,76.40
2018-08-17T02:03:33.383Z,76.40
2018-08-17T02:06:01.858Z,77.00
2018-08-17T02:08:30.347Z,77.10
2018-08-17T02:10:58.779Z,76.90
2018-08-17T02:13:27.267Z,76.70
2018-08-17T02:15:55.708Z,77.50
2018-08-17T02:18:24.119Z,77.40
2018-08-17T02:20:52.600Z,77.40
2018-08-17T02:23:21.005Z,77.90
2018-08-17T02:25:49.423Z,78.70
2018-08-17T02:28:17.795Z,78.20
2018-08-17T02:30:46.280Z,78.80
2018-08-17T02:33:14.725Z,78.80
2018-08-17T02:35:43.215Z,78.60
2018-08-17T02:38:11.671Z,79.30
2018-08-17T02:40:40.052Z,79.70
2018-08-17T02:43:08.562Z,79.50
2018-08-17T02:45:37.050Z,79.70
2018-08-17T02:48:05.587Z,80.20
2018-08-17T02:50:33.996Z,79.70
2018-08-17T02:53:02.576Z,80.00
2018-08-17T02:55:31.153Z,80.20
2018-08-17T02:57:59.639Z,81.10
2018-08-17T03:00:28.219Z,81.10
2018-08-17T03:02:56.739Z,80.60
2018-08-17T03:05:25.160Z,80.30
2018-08-17T03:07:53.596Z,81.00
2018-08-17T03:10:22.084Z,81.10
2018-08-17T03:12:50.527Z,81.70
2018-08-17T03:15:18.984Z,81.60
2018-08-17T03:17:47.408Z,81.40
2018-08-17T03:20:15.868Z,81.00
2018-08-17T03:22:44.441Z,80.90
2018-08-17T03:25:12.855Z,80.90
2018-08-17T03:27:41.272Z,80.70
2018-08-17T03:30:09.710Z,81.20
2018-08-17T03:32:38.190Z,81.30
2018-08-17T03:35:07.078Z,81.30
2018-08-17T03:37:35.492Z,81.30
2018-08-17T03:40:04.098Z,81.70
2018-08-17T03:42:32.600Z,81.70
2018-08-17T03:45:01.015Z,82.10
2018-08-17T03:47:29.439Z,82.80
2018-08-17T03:49:57.896Z,82.70
2018-08-17T03:52:26.315Z,82.50
2018-08-17T03:54:54.755Z,82.50
2018-08-17T03:57:23.279Z,82.40
2018-08-17T03:59:51.923Z,84.50
2018-08-17T04:02:20.440Z,83.50
2018-08-17T04:04:48.884Z,83.50
2018-08-17T04:07:17.323Z,83.30
2018-08-17T04:09:45.791Z,83.80
2018-08-17T04:12:14.228Z,83.70
2018-08-17T04:14:42.655Z,83.50
2018-08-17T04:17:11.113Z,83.70
2018-08-17T04:19:39.550Z,83.80
2018-08-17T04:22:08.026Z,84.10
2018-08-17T04:24:36.531Z,84.90
2018-08-17T04:27:05.051Z,84.40
2018-08-17T04:29:34.860Z,84.70
2018-08-17T04:32:03.348Z,85.90
2018-08-17T04:34:31.805Z,86.00
2018-08-17T04:37:00.326Z,86.30
2018-08-17T04:39:28.928Z,86.30
2018-08-17T04:41:57.395Z,86.70
2018-08-17T04:44:25.775Z,86.80
2018-08-17T04:46:54.216Z,86.90
2018-08-17T04:49:22.746Z,86.80
2018-08-17T04:51:51.224Z,87.20
2018-08-17T04:54:19.692Z,87.20
2018-08-17T04:56:48.074Z,86.50
2018-08-17T04:59:16.532Z,85.90
2018-08-17T05:01:44.903Z,86.80
2018-08-17T05:04:13.413Z,86.60
2018-08-17T05:06:41.897Z,86.70
2018-08-17T05:09:10.391Z,87.20
2018-08-17T05:11:38.895Z,87.20
2018-08-17T05:14:07.328Z,87.20
2018-08-17T05:16:35.796Z,87.40
2018-08-17T05:19:04.306Z,87.40
2018-08-17T05:21:32.790Z,87.40
2018-08-17T05:24:01.265Z,87.10
2018-08-17T05:26:29.739Z,87.00
2018-08-17T05:28:58.213Z,86.90
2018-08-17T05:31:26.605Z,87.10
2018-08-17T05:33:55.125Z,86.80
2018-08-17T05:36:23.588Z,86.40
2018-08-17T05:38:52.062Z,86.00
2018-08-17T05:41:20.556Z,85.80
2018-08-17T05:43:49.056Z,85.50
2018-08-17T05:46:17.468Z,85.30
2018-08-17T05:48:46.400Z,85.20
2018-08-17T05:51:16.069Z,85.30
2018-08-17T05:53:44.560Z,85.00
2018-08-17T05:56:13.104Z,84.60
2018-08-17T05:58:41.697Z,84.60
2018-08-17T06:01:10.152Z,84.50
2018-08-17T06:03:38.652Z,84.40
2018-08-17T06:06:07.955Z,84.10
2018-08-17T06:08:36.464Z,84.00
2018-08-17T06:11:05.127Z,83.60
2018-08-17T06:13:33.561Z,84.20
2018-08-17T06:16:01.968Z,82.20
2018-08-17T06:18:30.518Z,81.60
2018-08-17T06:20:58.991Z,81.20
2018-08-17T06:23:27.466Z,80.70
2018-08-17T06:25:56.098Z,80.50
2018-08-17T06:28:24.484Z,79.60
2018-08-17T06:30:52.979Z,78.30
2018-08-17T06:33:21.537Z,77.30
2018-08-17T06:35:50.064Z,75.50
2018-08-17T06:38:18.560Z,73.90
2018-08-17T06:40:46.994Z,73.40
2018-08-17T06:43:15.547Z,72.50
2018-08-17T06:45:44.149Z,72.20
2018-08-17T06:48:12.672Z,72.30
2018-08-17T06:50:41.149Z,72.30
2018-08-17T06:53:09.719Z,71.30
2018-08-17T06:55:39.088Z,70.90
2018-08-17T06:58:07.647Z,70.80
2018-08-17T07:00:36.151Z,70.80
2018-08-17T07:03:05.271Z,70.70
2018-08-17T07:05:33.705Z,70.20
2018-08-17T07:08:02.150Z,70.10
2018-08-17T07:10:30.630Z,69.40
2018-08-17T07:12:59.076Z,69.00
2018-08-17T07:15:27.578Z,68.80
2018-08-17T07:17:56.016Z,68.30
2018-08-17T07:20:24.499Z,68.00
2018-08-17T07:22:52.988Z,67.70
2018-08-17T07:25:21.407Z,67.30
2018-08-17T07:27:49.983Z,66.90
2018-08-17T07:30:18.379Z,66.80
2018-08-17T07:32:46.778Z,66.70
2018-08-17T07:35:15.394Z,66.70
2018-08-17T07:37:43.825Z,66.30
2018-08-17T07:40:12.306Z,65.90
2018-08-17T07:42:40.739Z,65.80
2018-08-17T07:45:09.361Z,65.70
2018-08-17T07:47:37.955Z,65.40
2018-08-17T07:50:06.449Z,65.10
2018-08-17T07:52:34.984Z,65.00
2018-08-17T07:55:04.106Z,64.90
2018-08-17T07:57:32.535Z,65.20
2018-08-17T08:00:01.184Z,64.50
2018-08-17T08:02:29.671Z,64.40
2018-08-17T08:04:58.091Z,64.90
2018-08-17T08:07:26.624Z,64.00
2018-08-17T08:09:55.059Z,64.00
2018-08-17T08:12:23.466Z,63.80
2018-08-17T08:14:51.927Z,63.60
2018-08-17T08:17:20.431Z,63.40
2018-08-17T08:20:00.235Z,63.20
2018-08-17T08:22:28.659Z,63.20
2018-08-17T08:24:57.175Z,63.10
2018-08-17T08:27:25.687Z,63.00
2018-08-17T08:29:54.408Z,63.00
2018-08-17T08:32:22.966Z,62.90
2018-08-17T08:34:51.432Z,62.50
2018-08-17T08:37:20.218Z,62.30
2018-08-17T08:39:48.730Z,62.30
2018-08-17T08:42:17.147Z,62.20
2018-08-17T08:44:45.577Z,61.90
2018-08-17T08:47:14.097Z,61.10
2018-08-17T08:49:42.565Z,60.00
2018-08-17T08:52:11.092Z,59.70
2018-08-17T08:54:39.788Z,58.80
2018-08-17T08:57:08.235Z,58.70
2018-08-17T08:59:36.690Z,59.00
2018-08-17T09:02:05.230Z,59.10
2018-08-17T09:04:33.744Z,59.20
2018-08-17T09:07:02.234Z,59.30
2018-08-17T09:09:30.672Z,58.90
2018-08-17T09:11:59.141Z,59.10
2018-08-17T09:17:06.756Z,59.20
2018-08-17T09:19:35.204Z,58.40
2018-08-17T09:22:03.684Z,58.40
2018-08-17T09:24:32.135Z,58.00
2018-08-17T09:27:00.586Z,58.50
2018-08-17T09:29:29.051Z,58.70
2018-08-17T09:31:57.568Z,58.80
2018-08-17T09:34:26.068Z,59.00
2018-08-17T09:36:54.510Z,58.70
2018-08-17T09:39:22.968Z,58.60
2018-08-17T09:41:58.265Z,58.90
2018-08-17T09:44:27.112Z,58.80
2018-08-17T09:46:55.580Z,58.20
2018-08-17T09:49:24.024Z,58.40
2018-08-17T09:51:52.451Z,57.80
2018-08-17T09:54:20.945Z,57.70
2018-08-17T09:56:49.572Z,57.50
2018-08-17T09:59:18.199Z,57.20
2018-08-17T10:01:51.819Z,56.70
2018-08-17T10:04:25.661Z,56.70
2018-08-17T10:06:59.455Z,56.50
2018-08-17T10:09:33.420Z,56.60
2018-08-17T10:12:01.908Z,56.70
2018-08-17T10:14:30.481Z,57.30
2018-08-17T10:16:58.972Z,57.70
2018-08-17T10:19:27.512Z,57.00
2018-08-17T10:21:56.428Z,57.00
2018-08-17T10:24:25.029Z,57.50
2018-08-17T10:26:54.524Z,57.70
2018-08-17T10:29:23.368Z,57.70
2018-08-17T10:31:51.996Z,57.50
2018-08-17T10:34:20.642Z,57.50
2018-08-17T10:36:49.155Z,56.70
2018-08-17T10:39:17.652Z,57.00
2018-08-17T10:41:46.148Z,56.80
2018-08-17T10:44:14.639Z,56.60
2018-08-17T10:46:43.344Z,56.60
2018-08-17T10:49:11.894Z,56.50
2018-08-17T10:51:40.404Z,55.10
2018-08-17T10:54:08.901Z,55.10
2018-08-17T10:56:37.573Z,55.50
2018-08-17T10:59:06.157Z,55.50
2018-08-17T11:01:34.588Z,55.60
2018-08-17T11:04:03.175Z,55.60
2018-08-17T11:06:31.688Z,55.20
2018-08-17T11:09:00.146Z,56.10
2018-08-17T11:11:28.610Z,56.10
2018-08-17T11:13:57.080Z,55.60
2018-08-17T11:16:25.592Z,55.80
2018-08-17T11:18:54.184Z,54.80
2018-08-17T11:21:22.708Z,53.10
2018-08-17T11:23:51.101Z,53.70
2018-08-17T11:26:19.597Z,52.60
2018-08-17T11:28:48.081Z,52.60
2018-08-17T11:31:17.456Z,53.10
2018-08-17T11:33:45.900Z,52.50
2018-08-17T11:36:14.464Z,52.50
2018-08-17T11:38:43.004Z,52.90
2018-08-17T11:41:12.410Z,53.90
2018-08-17T11:43:40.824Z,53.70
2018-08-17T11:46:09.280Z,53.60
2018-08-17T11:48:38.375Z,53.30
2018-08-17T11:51:06.852Z,53.90
2018-08-17T11:53:35.461Z,51.10
2018-08-17T11:56:04.483Z,51.20
2018-08-17T11:58:33.036Z,50.10
2018-08-17T12:01:05.105Z,51.60
2018-08-17T12:03:33.820Z,53.00
2018-08-17T12:06:02.383Z,52.90
2018-08-17T12:08:30.869Z,52.00
2018-08-17T12:11:04.234Z,51.90
2018-08-17T12:13:32.896Z,51.60
2018-08-17T12:16:01.591Z,51.70
2018-08-17T12:18:30.021Z,52.60
2018-08-17T12:20:58.695Z,52.80
2018-08-17T12:23:27.108Z,53.10
2018-08-17T12:25:56.836Z,53.30
2018-08-17T12:28:26.857Z,53.20
2018-08-17T12:30:55.846Z,51.80
2018-08-17T12:33:24.329Z,50.80
2018-08-17T12:35:52.876Z,50.00
2018-08-17T12:38:21.315Z,51.30
2018-08-17T12:40:51.203Z,50.40
2018-08-17T12:43:24.146Z,49.60
2018-08-17T12:45:52.616Z,47.80
2018-08-17T12:48:21.139Z,48.40
2018-08-17T12:50:49.608Z,49.50
2018-08-17T12:53:18.157Z,49.40
2018-08-17T12:55:46.689Z,48.20
2018-08-17T12:58:16.342Z,48.00
2018-08-17T13:00:44.801Z,49.20
2018-08-17T13:03:13.938Z,49.90
2018-08-17T13:05:42.370Z,49.90
2018-08-17T13:08:10.933Z,50.40
2018-08-17T13:10:39.576Z,50.80
2018-08-17T13:13:09.275Z,50.60
2018-08-17T13:15:38.618Z,49.60
2018-08-17T13:18:14.257Z,48.30
2018-08-17T13:20:42.939Z,46.90
2018-08-17T13:23:11.815Z,46.00
2018-08-17T13:25:44.063Z,45.60
2018-08-17T13:28:13.549Z,47.50
2018-08-17T13:30:42.052Z,49.50
2018-08-17T13:33:10.612Z,49.70
2018-08-17T13:35:39.098Z,49.80
2018-08-17T13:38:07.679Z,49.20
2018-08-17T13:40:36.176Z,50.40
2018-08-17T13:43:04.675Z,50.70
2018-08-17T13:45:33.328Z,51.20
2018-08-17T13:48:01.888Z,50.50
2018-08-17T13:50:30.449Z,49.70
2018-08-17T13:52:58.955Z,48.10
2018-08-17T13:55:27.562Z,48.00
2018-08-17T13:57:55.989Z,48.70
2018-08-17T14:00:26.627Z,48.70
2018-08-17T14:02:55.167Z,49.60
2018-08-17T14:05:23.617Z,49.50
2018-08-17T14:07:52.016Z,49.10
2018-08-17T14:10:20.483Z,49.60
2018-08-17T14:12:48.956Z,49.60
2018-08-17T14:15:17.569Z,49.50
2018-08-17T14:17:45.979Z,48.70
2018-08-17T14:20:15.496Z,48.50
2018-08-17T14:22:43.999Z,48.20
2018-08-17T14:25:12.683Z,48.90
2018-08-17T14:27:41.474Z,50.00
2018-08-17T14:30:12.931Z,50.70
2018-08-17T14:32:41.677Z,50.40
2018-08-17T14:35:10.308Z,49.90
2018-08-17T14:37:38.711Z,49.20
2018-08-17T14:40:07.780Z,49.40
2018-08-17T14:42:36.285Z,49.90
2018-08-17T14:45:05.903Z,49.60
2018-08-17T14:47:34.388Z,47.50
2018-08-17T14:50:03.007Z,45.40
2018-08-17T14:52:31.496Z,42.80
2018-08-17T14:55:00.031Z,43.60
2018-08-17T14:57:28.595Z,44.30
2018-08-17T14:59:57.025Z,45.20
2018-08-17T15:02:25.589Z,44.00
2018-08-17T15:04:54.065Z,44.60
2018-08-17T15:07:22.590Z,45.30
2018-08-17T15:09:51.039Z,48.00
2018-08-17T15:12:19.623Z,47.80
2018-08-17T15:14:48.094Z,47.50
2018-08-17T15:17:16.746Z,48.30
2018-08-17T15:19:45.192Z,48.70
2018-08-17T15:22:13.700Z,48.70
2018-08-17T15:24:42.115Z,48.60
2018-08-17T15:27:10.660Z,48.20
2018-08-17T15:29:39.180Z,47.80
2018-08-17T15:32:08.235Z,47.30
2018-08-17T15:34:36.674Z,46.70
2018-08-17T15:37:05.244Z,47.60
2018-08-17T15:39:33.851Z,49.30
2018-08-17T15:42:02.301Z,50.40
2018-08-17T15:44:30.783Z,51.00
2018-08-17T15:46:59.475Z,50.80
2018-08-17T15:49:33.024Z,50.30
2018-08-17T15:52:02.670Z,50.20
2018-08-17T15:54:31.196Z,50.80
2018-08-17T15:56:59.984Z,50.80
2018-08-17T15:59:28.603Z,50.90
2018-08-17T16:01:57.355Z,51.30
2018-08-17T16:04:26.049Z,51.30
2018-08-17T16:06:54.498Z,52.10
2018-08-17T16:09:22.986Z,52.60
2018-08-17T16:11:52.285Z,52.80
2018-08-17T16:14:20.816Z,54.40
2018-08-17T16:16:49.411Z,54.70
2018-08-17T16:19:17.843Z,54.40
2018-08-17T16:21:46.376Z,54.40
2018-08-17T16:24:14.903Z,54.40
2018-08-17T16:26:43.432Z,54.50
2018-08-17T16:29:11.855Z,54.70
2018-08-17T16:31:42.435Z,54.90
2018-08-17T16:34:11.244Z,55.60
2018-08-17T16:36:42.382Z,56.00
2018-08-17T16:39:15.046Z,55.70
2018-08-17T16:41:43.688Z,56.00
2018-08-17T16:44:12.531Z,56.40
2018-08-17T16:46:42.150Z,56.50
2018-08-17T16:49:10.817Z,56.40
2018-08-17T16:51:39.634Z,56.50
2018-08-17T16:54:08.477Z,56.40
2018-08-17T16:56:37.364Z,56.50
2018-08-17T16:59:06.166Z,56.40
2018-08-17T17:01:34.943Z,56.50
2018-08-17T17:04:03.627Z,56.70
2018-08-17T17:06:32.367Z,56.90
2018-08-17T17:09:06.068Z,57.50
2018-08-17T17:11:34.935Z,57.60
2018-08-17T17:14:03.763Z,57.40
2018-08-17T17:16:38.224Z,57.70
2018-08-17T17:19:13.395Z,58.00
2018-08-17T17:21:42.700Z,58.10
2018-08-17T17:24:11.278Z,57.80
2018-08-17T17:26:40.382Z,58.00
2018-08-17T17:29:09.088Z,58.20
2018-08-17T17:31:37.464Z,58.90
2018-08-17T17:34:06.485Z,59.30
2018-08-17T17:36:35.894Z,59.10
2018-08-17T17:39:06.520Z,59.20
2018-08-17T17:41:35.118Z,59.50
2018-08-17T17:44:03.787Z,59.60
2018-08-17T17:46:32.313Z,59.80
2018-08-17T17:49:00.807Z,60.10
2018-08-17T17:51:30.773Z,59.80
2018-08-17T17:53:59.227Z,60.10
2018-08-17T17:56:28.526Z,60.10
2018-08-17T17:59:03.343Z,59.70
2018-08-17T18:01:31.916Z,59.90
2018-08-17T18:04:00.575Z,60.10
2018-08-17T18:06:29.179Z,60.50
2018-08-17T18:08:59.959Z,60.60
2018-08-17T18:11:29.156Z,60.30
2018-08-17T18:13:57.654Z,60.10
2018-08-17T18:16:26.198Z,61.00
2018-08-17T18:18:54.708Z,60.50
2018-08-17T18:21:28.555Z,61.00
2018-08-17T18:24:12.694Z,61.00
2018-08-17T18:26:47.532Z,61.50
2018-08-17T18:29:16.197Z,61.30
2018-08-17T18:31:44.843Z,61.00
2018-08-17T18:34:13.485Z,61.00
2018-08-17T18:36:42.606Z,60.90
2018-08-17T18:39:12.990Z,62.10
2018-08-17T18:41:41.594Z,61.30
2018-08-17T18:44:10.378Z,61.20
2018-08-17T18:46:38.964Z,62.20
2018-08-17T18:49:07.448Z,62.40
2018-08-17T18:51:36.044Z,62.50
2018-08-17T18:54:04.832Z,62.30
2018-08-17T18:56:34.298Z,63.00
2018-08-17T18:59:02.852Z,62.80
2018-08-17T19:01:31.428Z,62.30
2018-08-17T19:04:00.115Z,62.70
2018-08-17T19:06:28.599Z,63.40
2018-08-17T19:08:57.591Z,63.50
2018-08-17T19:11:26.114Z,63.30
2018-08-17T19:13:54.824Z,63.70
2018-08-17T19:16:23.309Z,63.80
2018-08-17T19:18:51.752Z,63.10
2018-08-17T19:21:20.816Z,64.40
2018-08-17T19:23:50.288Z,64.40
2018-08-17T19:26:20.122Z,64.40
2018-08-17T19:28:52.653Z,64.30
2018-08-17T19:31:23.435Z,64.60
2018-08-17T19:33:51.911Z,63.50
2018-08-17T19:36:23.292Z,63.70
2018-08-17T19:38:51.786Z,64.30
2018-08-17T19:41:20.283Z,64.40
2018-08-17T19:43:49.334Z,65.40
2018-08-17T19:46:19.160Z,66.00
2018-08-17T19:48:47.448Z,65.20
2018-08-17T19:51:19.083Z,65.70
2018-08-17T19:53:47.884Z,65.00
2018-08-17T19:56:16.769Z,64.60
2018-08-17T19:58:45.241Z,65.20
2018-08-17T20:01:13.647Z,65.30
2018-08-17T20:03:44.596Z,65.80
2018-08-17T20:06:15.160Z,66.30
2018-08-17T20:08:45.687Z,66.20
2018-08-17T20:11:14.156Z,66.70
2018-08-17T20:13:42.609Z,67.50
2018-08-17T20:16:16.800Z,66.50
2018-08-17T20:18:45.232Z,67.20
2018-08-17T20:21:13.727Z,67.50
2018-08-17T20:23:42.209Z,67.40
2018-08-17T20:26:10.852Z,67.30
2018-08-17T20:28:39.408Z,67.80
2018-08-17T20:31:08.034Z,68.00
2018-08-17T20:33:36.603Z,67.70
2018-08-17T20:36:05.186Z,68.20
2018-08-17T20:38:34.589Z,67.70
2018-08-17T20:41:03.005Z,67.30
2018-08-17T20:43:31.532Z,68.30
2018-08-17T20:46:00.718Z,68.30
2018-08-17T20:48:29.331Z,68.80
2018-08-17T20:51:04.112Z,68.30
2018-08-17T20:53:33.008Z,68.20
2018-08-17T20:56:01.516Z,69.80
2018-08-17T20:58:30.028Z,69.20
2018-08-17T21:00:58.536Z,69.00
2018-08-17T21:03:27.028Z,68.80
2018-08-17T21:05:55.567Z,69.50
2018-08-17T21:08:24.046Z,71.10
2018-08-17T21:10:52.686Z,70.30
2018-08-17T21:13:21.156Z,69.40
2018-08-17T21:15:49.709Z,70.40
2018-08-17T21:18:18.219Z,70.10
2018-08-17T21:20:46.709Z,70.10
2018-08-17T21:23:15.187Z,70.20
2018-08-17T21:25:43.670Z,70.20
2018-08-17T21:28:12.124Z,71.50
2018-08-17T21:30:40.605Z,71.70
2018-08-17T21:33:09.104Z,71.40
2018-08-17T21:35:37.649Z,70.90
2018-08-17T21:38:06.327Z,71.40
2018-08-17T21:40:35.024Z,71.40
2018-08-17T21:43:03.591Z,72.10
2018-08-17T21:45:32.691Z,71.50
2018-08-17T21:48:01.202Z,71.20
2018-08-17T21:50:29.664Z,71.60
2018-08-17T21:52:58.174Z,71.40
2018-08-17T21:55:26.746Z,71.50
2018-08-17T21:57:55.419Z,72.40
2018-08-17T22:00:29.651Z,72.10
2018-08-17T22:02:58.436Z,72.80
2018-08-17T22:05:29.123Z,72.50
2018-08-17T22:07:57.864Z,72.30
2018-08-17T22:10:26.447Z,73.20
2018-08-17T22:12:54.963Z,72.70
2018-08-17T22:15:26.308Z,72.70
2018-08-17T22:17:57.867Z,72.50
2018-08-17T22:20:26.388Z,73.90
2018-08-17T22:22:54.900Z,74.20
2018-08-17T22:25:23.466Z,73.20
2018-08-17T22:27:52.011Z,73.20
2018-08-17T22:30:23.558Z,73.30
2018-08-17T22:32:52.115Z,73.80
2018-08-17T22:35:20.702Z,73.70
2018-08-17T22:37:49.212Z,74.30
2018-08-17T22:40:17.668Z,73.70
2018-08-17T22:42:47.741Z,73.80
2018-08-17T22:45:16.306Z,74.70
2018-08-17T22:47:45.014Z,74.60
2018-08-17T22:50:13.585Z,76.10
2018-08-17T22:52:42.148Z,75.50
2018-08-17T22:55:10.577Z,74.90
2018-08-17T22:57:39.103Z,76.10
2018-08-17T23:00:19.411Z,76.50
2018-08-17T23:02:49.071Z,75.60
2018-08-17T23:05:21.994Z,76.00
2018-08-17T23:07:50.523Z,75.00
2018-08-17T23:10:20.283Z,75.40
2018-08-17T23:12:50.006Z,75.50
2018-08-17T23:15:18.504Z,75.70
2018-08-17T23:17:48.871Z,76.00
2018-08-17T23:20:21.594Z,76.70
2018-08-17T23:22:51.104Z,76.20
2018-08-17T23:25:19.786Z,76.50
2018-08-17T23:27:48.969Z,76.50
2018-08-17T23:30:17.491Z,76.20
2018-08-17T23:32:46.348Z,75.60
2018-08-17T23:35:14.815Z,76.60
2018-08-17T23:37:43.460Z,75.90
2018-08-17T23:40:11.962Z,75.80
2018-08-17T23:42:40.538Z,75.90
2018-08-17T23:45:11.696Z,75.70
2018-08-17T23:47:40.324Z,76.40
2018-08-17T23:50:10.320Z,76.30
2018-08-17T23:52:38.755Z,76.50
2018-08-17T23:55:08.899Z,78.00
2018-08-17T23:57:37.393Z,77.00
